sensor_id;sensor_type;location;lat;lon;timestamp;pressure;altitude;pressure_sealevel;temperature;humidity
23996;BME280;12207;50.076;8.848;2022-09-09T00:00:14;99604.44;;;15.46;100.00
23996;BME280;12207;50.076;8.848;2022-09-09T00:03:29;99607.16;;;15.53;100.00
23996;BME280;12207;50.076;8.848;2022-09-09T00:05:34;99610.63;;;15.53;100.00
23996;BME280;12207;50.076;8.848;2022-09-09T00:08:07;99608.06;;;15.53;100.00
23996;BME280;12207;50.076;8.848;2022-09-09T00:10:39;99602.19;;;15.60;100.00
23996;BME280;12207;50.076;8.848;2022-09-09T00:15:57;99592.00;;;15.65;100.00
23996;BME280;12207;50.076;8.848;2022-09-09T00:18:47;99589.53;;;15.68;100.00
23996;BME280;12207;50.076;8.848;2022-09-09T00:21:17;99592.13;;;15.69;100.00
23996;BME280;12207;50.076;8.848;2022-09-09T00:23:45;99598.97;;;15.69;100.00
23996;BME280;12207;50.076;8.848;2022-09-09T00:28:48;99593.06;;;15.73;100.00
23996;BME280;12207;50.076;8.848;2022-09-09T00:31:18;99588.84;;;15.77;100.00
23996;BME280;12207;50.076;8.848;2022-09-09T00:33:46;99591.31;;;15.70;100.00
23996;BME280;12207;50.076;8.848;2022-09-09T00:36:17;99584.22;;;15.62;100.00
23996;BME280;12207;50.076;8.848;2022-09-09T00:38:48;99591.09;;;15.63;100.00
23996;BME280;12207;50.076;8.848;2022-09-09T00:41:22;99594.59;;;15.65;100.00
23996;BME280;12207;50.076;8.848;2022-09-09T00:44:00;99590.25;;;15.62;100.00
23996;BME280;12207;50.076;8.848;2022-09-09T00:49:26;99585.69;;;15.50;100.00
23996;BME280;12207;50.076;8.848;2022-09-09T00:59:45;99602.66;;;15.42;100.00
23996;BME280;12207;50.076;8.848;2022-09-09T01:04:51;99603.50;;;15.41;100.00
23996;BME280;12207;50.076;8.848;2022-09-09T01:07:18;99598.97;;;15.31;100.00
23996;BME280;12207;50.076;8.848;2022-09-09T01:12:14;99599.69;;;15.24;100.00
23996;BME280;12207;50.076;8.848;2022-09-09T01:17:15;99591.97;;;15.24;100.00
23996;BME280;12207;50.076;8.848;2022-09-09T01:27:40;99583.66;;;14.98;100.00
23996;BME280;12207;50.076;8.848;2022-09-09T01:30:15;99587.00;;;14.95;100.00
23996;BME280;12207;50.076;8.848;2022-09-09T01:32:43;99587.78;;;14.91;100.00
23996;BME280;12207;50.076;8.848;2022-09-09T01:35:11;99582.63;;;14.91;100.00
23996;BME280;12207;50.076;8.848;2022-09-09T01:37:40;99578.22;;;14.86;100.00
23996;BME280;12207;50.076;8.848;2022-09-09T01:40:07;99574.66;;;14.79;100.00
23996;BME280;12207;50.076;8.848;2022-09-09T01:42:33;99581.56;;;14.81;100.00
23996;BME280;12207;50.076;8.848;2022-09-09T01:45:00;99573.72;;;14.75;100.00
23996;BME280;12207;50.076;8.848;2022-09-09T01:47:26;99572.88;;;14.78;100.00
23996;BME280;12207;50.076;8.848;2022-09-09T01:49:53;99586.66;;;14.80;100.00
23996;BME280;12207;50.076;8.848;2022-09-09T01:52:19;99580.56;;;14.76;100.00
23996;BME280;12207;50.076;8.848;2022-09-09T01:54:46;99583.94;;;14.74;100.00
23996;BME280;12207;50.076;8.848;2022-09-09T01:57:21;99574.56;;;14.76;100.00
23996;BME280;12207;50.076;8.848;2022-09-09T02:00:05;99569.50;;;14.79;100.00
23996;BME280;12207;50.076;8.848;2022-09-09T02:07:42;99573.38;;;14.63;100.00
23996;BME280;12207;50.076;8.848;2022-09-09T02:12:46;99574.97;;;14.58;100.00
23996;BME280;12207;50.076;8.848;2022-09-09T02:15:24;99579.34;;;14.61;100.00
23996;BME280;12207;50.076;8.848;2022-09-09T02:17:54;99588.00;;;14.66;100.00
23996;BME280;12207;50.076;8.848;2022-09-09T02:20:24;99588.75;;;14.62;100.00
23996;BME280;12207;50.076;8.848;2022-09-09T02:22:53;99584.41;;;14.59;100.00
23996;BME280;12207;50.076;8.848;2022-09-09T02:25:21;99587.84;;;14.59;100.00
23996;BME280;12207;50.076;8.848;2022-09-09T02:27:49;99582.72;;;14.59;100.00
23996;BME280;12207;50.076;8.848;2022-09-09T02:30:16;99590.41;;;14.59;100.00
23996;BME280;12207;50.076;8.848;2022-09-09T02:32:44;99586.13;;;14.58;100.00
23996;BME280;12207;50.076;8.848;2022-09-09T02:35:15;99588.75;;;14.62;100.00
23996;BME280;12207;50.076;8.848;2022-09-09T02:37:44;99587.19;;;14.67;100.00
23996;BME280;12207;50.076;8.848;2022-09-09T02:40:12;99588.06;;;14.67;100.00
23996;BME280;12207;50.076;8.848;2022-09-09T02:42:45;99593.34;;;14.75;100.00
23996;BME280;12207;50.076;8.848;2022-09-09T02:45:13;99600.28;;;14.77;100.00
23996;BME280;12207;50.076;8.848;2022-09-09T02:47:44;99597.78;;;14.80;100.00
23996;BME280;12207;50.076;8.848;2022-09-09T02:50:32;99591.97;;;14.88;100.00
23996;BME280;12207;50.076;8.848;2022-09-09T02:53:07;99586.84;;;14.88;100.00
23996;BME280;12207;50.076;8.848;2022-09-09T02:55:38;99595.38;;;14.87;100.00
23996;BME280;12207;50.076;8.848;2022-09-09T02:58:06;99590.22;;;14.87;100.00
23996;BME280;12207;50.076;8.848;2022-09-09T03:00:34;99588.53;;;14.87;100.00
23996;BME280;12207;50.076;8.848;2022-09-09T03:03:03;99589.72;;;15.01;100.00
23996;BME280;12207;50.076;8.848;2022-09-09T03:05:29;99594.13;;;15.06;100.00
23996;BME280;12207;50.076;8.848;2022-09-09T03:07:56;99593.31;;;15.08;100.00
23996;BME280;12207;50.076;8.848;2022-09-09T03:10:22;99587.38;;;15.11;100.00
23996;BME280;12207;50.076;8.848;2022-09-09T03:12:49;99585.75;;;15.14;100.00
23996;BME280;12207;50.076;8.848;2022-09-09T03:15:16;99577.28;;;15.18;100.00
23996;BME280;12207;50.076;8.848;2022-09-09T03:17:43;99586.78;;;15.22;100.00
23996;BME280;12207;50.076;8.848;2022-09-09T03:20:09;99577.22;;;15.17;100.00
23996;BME280;12207;50.076;8.848;2022-09-09T03:22:36;99583.19;;;15.14;100.00
23996;BME280;12207;50.076;8.848;2022-09-09T03:25:02;99582.28;;;15.12;100.00
23996;BME280;12207;50.076;8.848;2022-09-09T03:27:29;99580.22;;;14.97;100.00
23996;BME280;12207;50.076;8.848;2022-09-09T03:29:55;99585.34;;;14.97;100.00
23996;BME280;12207;50.076;8.848;2022-09-09T03:32:22;99586.00;;;14.89;100.00
23996;BME280;12207;50.076;8.848;2022-09-09T03:34:49;99579.81;;;14.80;100.00
23996;BME280;12207;50.076;8.848;2022-09-09T03:37:16;99579.78;;;14.79;100.00
23996;BME280;12207;50.076;8.848;2022-09-09T03:39:43;99581.16;;;14.66;100.00
23996;BME280;12207;50.076;8.848;2022-09-09T03:42:14;99586.38;;;14.69;100.00
23996;BME280;12207;50.076;8.848;2022-09-09T03:44:40;99585.28;;;14.59;100.00
23996;BME280;12207;50.076;8.848;2022-09-09T03:47:08;99581.00;;;14.60;100.00
23996;BME280;12207;50.076;8.848;2022-09-09T03:49:34;99579.97;;;14.52;100.00
23996;BME280;12207;50.076;8.848;2022-09-09T03:52:01;99584.41;;;14.57;100.00
23996;BME280;12207;50.076;8.848;2022-09-09T03:54:27;99586.97;;;14.59;100.00
23996;BME280;12207;50.076;8.848;2022-09-09T03:56:54;99585.13;;;14.53;100.00
23996;BME280;12207;50.076;8.848;2022-09-09T03:59:20;99581.63;;;14.51;100.00
23996;BME280;12207;50.076;8.848;2022-09-09T04:01:47;99579.06;;;14.51;100.00
23996;BME280;12207;50.076;8.848;2022-09-09T04:04:14;99575.59;;;14.51;100.00
23996;BME280;12207;50.076;8.848;2022-09-09T04:06:40;99576.50;;;14.51;100.00
23996;BME280;12207;50.076;8.848;2022-09-09T04:09:07;99566.41;;;14.57;100.00
23996;BME280;12207;50.076;8.848;2022-09-09T04:11:33;99571.56;;;14.57;100.00
23996;BME280;12207;50.076;8.848;2022-09-09T04:14:00;99580.97;;;14.58;100.00
23996;BME280;12207;50.076;8.848;2022-09-09T04:16:26;99573.22;;;14.57;100.00
23996;BME280;12207;50.076;8.848;2022-09-09T04:18:53;99569.94;;;14.61;100.00
23996;BME280;12207;50.076;8.848;2022-09-09T04:21:19;99581.91;;;14.61;100.00
23996;BME280;12207;50.076;8.848;2022-09-09T04:23:47;99577.50;;;14.56;100.00
23996;BME280;12207;50.076;8.848;2022-09-09T04:26:14;99572.28;;;14.53;100.00
23996;BME280;12207;50.076;8.848;2022-09-09T04:28:41;99588.56;;;14.54;100.00
23996;BME280;12207;50.076;8.848;2022-09-09T04:31:09;99581.28;;;14.39;100.00
23996;BME280;12207;50.076;8.848;2022-09-09T04:33:37;99581.13;;;14.33;100.00
23996;BME280;12207;50.076;8.848;2022-09-09T04:36:06;99572.56;;;14.32;100.00
23996;BME280;12207;50.076;8.848;2022-09-09T04:38:32;99573.72;;;14.44;100.00
23996;BME280;12207;50.076;8.848;2022-09-09T04:40:59;99573.72;;;14.44;100.00
23996;BME280;12207;50.076;8.848;2022-09-09T04:43:25;99575.34;;;14.40;100.00
23996;BME280;12207;50.076;8.848;2022-09-09T04:45:52;99570.44;;;14.49;100.00
23996;BME280;12207;50.076;8.848;2022-09-09T04:48:19;99566.13;;;14.48;100.00
23996;BME280;12207;50.076;8.848;2022-09-09T04:50:53;99571.38;;;14.51;100.00
23996;BME280;12207;50.076;8.848;2022-09-09T04:53:20;99566.41;;;14.57;100.00
23996;BME280;12207;50.076;8.848;2022-09-09T04:55:47;99570.78;;;14.62;100.00
23996;BME280;12207;50.076;8.848;2022-09-09T04:58:13;99565.66;;;14.62;100.00
23996;BME280;12207;50.076;8.848;2022-09-09T05:00:40;99581.91;;;14.61;100.00
23996;BME280;12207;50.076;8.848;2022-09-09T05:03:06;99570.66;;;14.57;100.00
23996;BME280;12207;50.076;8.848;2022-09-09T05:05:35;99580.13;;;14.58;100.00
23996;BME280;12207;50.076;8.848;2022-09-09T05:08:02;99577.56;;;14.59;100.00
23996;BME280;12207;50.076;8.848;2022-09-09T05:10:29;99589.75;;;14.67;100.00
23996;BME280;12207;50.076;8.848;2022-09-09T05:12:55;99593.28;;;14.72;100.00
23996;BME280;12207;50.076;8.848;2022-09-09T05:15:22;99598.72;;;14.84;100.00
23996;BME280;12207;50.076;8.848;2022-09-09T05:17:48;99601.53;;;14.93;100.00
23996;BME280;12207;50.076;8.848;2022-09-09T05:20:15;99605.28;;;15.08;100.00
23996;BME280;12207;50.076;8.848;2022-09-09T05:22:42;99607.53;;;15.30;100.00
23996;BME280;12207;50.076;8.848;2022-09-09T05:25:09;99610.25;;;15.74;100.00
23996;BME280;12207;50.076;8.848;2022-09-09T05:27:36;99613.56;;;16.11;100.00
23996;BME280;12207;50.076;8.848;2022-09-09T05:30:02;99620.13;;;16.40;100.00
23996;BME280;12207;50.076;8.848;2022-09-09T05:32:30;99625.91;;;16.29;100.00
23996;BME280;12207;50.076;8.848;2022-09-09T05:35:00;99625.84;;;16.26;100.00
23996;BME280;12207;50.076;8.848;2022-09-09T05:37:27;99626.69;;;16.25;100.00
23996;BME280;12207;50.076;8.848;2022-09-09T05:39:54;99634.00;;;16.49;100.00
23996;BME280;12207;50.076;8.848;2022-09-09T05:42:21;99634.97;;;16.55;100.00
23996;BME280;12207;50.076;8.848;2022-09-09T05:44:47;99629.63;;;16.92;100.00
23996;BME280;12207;50.076;8.848;2022-09-09T05:47:14;99628.28;;;17.15;100.00
23996;BME280;12207;50.076;8.848;2022-09-09T05:49:41;99630.38;;;17.39;100.00
23996;BME280;12207;50.076;8.848;2022-09-09T05:52:07;99638.06;;;17.97;100.00
23996;BME280;12207;50.076;8.848;2022-09-09T05:54:35;99642.16;;;17.81;100.00
23996;BME280;12207;50.076;8.848;2022-09-09T05:57:03;99641.25;;;17.77;100.00
23996;BME280;12207;50.076;8.848;2022-09-09T05:59:30;99640.97;;;17.61;100.00
23996;BME280;12207;50.076;8.848;2022-09-09T06:01:57;99647.44;;;17.29;100.00
23996;BME280;12207;50.076;8.848;2022-09-09T06:04:24;99649.63;;;17.06;100.00
23996;BME280;12207;50.076;8.848;2022-09-09T06:06:51;99647.84;;;17.02;100.00
23996;BME280;12207;50.076;8.848;2022-09-09T06:09:17;99643.50;;;17.00;100.00
23996;BME280;12207;50.076;8.848;2022-09-09T06:11:44;99642.41;;;16.85;100.00
23996;BME280;12207;50.076;8.848;2022-09-09T06:14:10;99644.13;;;16.85;100.00
23996;BME280;12207;50.076;8.848;2022-09-09T06:16:37;99650.75;;;16.74;100.00
23996;BME280;12207;50.076;8.848;2022-09-09T06:19:10;99650.75;;;16.72;100.00
23996;BME280;12207;50.076;8.848;2022-09-09T06:21:38;99654.94;;;16.67;100.00
23996;BME280;12207;50.076;8.848;2022-09-09T06:24:05;99652.53;;;16.75;100.00
23996;BME280;12207;50.076;8.848;2022-09-09T06:26:33;99647.66;;;16.90;100.00
23996;BME280;12207;50.076;8.848;2022-09-09T06:29:00;99646.03;;;16.97;100.00
23996;BME280;12207;50.076;8.848;2022-09-09T06:31:30;99647.25;;;17.19;100.00
23996;BME280;12207;50.076;8.848;2022-09-09T06:33:57;99647.34;;;17.83;100.00
23996;BME280;12207;50.076;8.848;2022-09-09T06:36:27;99647.13;;;18.37;100.00
23996;BME280;12207;50.076;8.848;2022-09-09T06:38:54;99649.31;;;18.80;100.00
23996;BME280;12207;50.076;8.848;2022-09-09T06:41:22;99644.56;;;19.32;100.00
23996;BME280;12207;50.076;8.848;2022-09-09T06:43:49;99638.50;;;19.28;99.75
23996;BME280;12207;50.076;8.848;2022-09-09T06:46:16;99642.00;;;19.30;99.12
23996;BME280;12207;50.076;8.848;2022-09-09T06:48:43;99647.13;;;19.29;100.00
23996;BME280;12207;50.076;8.848;2022-09-09T06:51:14;99648.81;;;19.24;98.53
23996;BME280;12207;50.076;8.848;2022-09-09T06:53:41;99641.88;;;19.21;100.00
23996;BME280;12207;50.076;8.848;2022-09-09T06:58:44;99653.28;;;19.43;98.42
23996;BME280;12207;50.076;8.848;2022-09-09T07:01:12;99655.03;;;19.47;98.62
23996;BME280;12207;50.076;8.848;2022-09-09T07:03:39;99653.38;;;19.62;96.70
23996;BME280;12207;50.076;8.848;2022-09-09T07:06:06;99650.78;;;19.58;96.06
23996;BME280;12207;50.076;8.848;2022-09-09T07:08:33;99648.16;;;19.52;97.27
23996;BME280;12207;50.076;8.848;2022-09-09T07:11:03;99655.09;;;19.63;98.55
23996;BME280;12207;50.076;8.848;2022-09-09T07:13:31;99655.94;;;19.57;95.05
23996;BME280;12207;50.076;8.848;2022-09-09T07:16:04;99652.44;;;19.50;96.35
23996;BME280;12207;50.076;8.848;2022-09-09T07:18:32;99651.53;;;19.45;97.01
23996;BME280;12207;50.076;8.848;2022-09-09T07:20:59;99654.13;;;19.41;97.66
23996;BME280;12207;50.076;8.848;2022-09-09T07:23:26;99658.41;;;19.34;96.98
23996;BME280;12207;50.076;8.848;2022-09-09T07:25:52;99655.69;;;19.20;97.58
23996;BME280;12207;50.076;8.848;2022-09-09T07:28:20;99653.75;;;18.95;97.46
23996;BME280;12207;50.076;8.848;2022-09-09T07:30:56;99656.22;;;18.82;97.69
23996;BME280;12207;50.076;8.848;2022-09-09T07:33:23;99672.56;;;18.78;98.86
23996;BME280;12207;50.076;8.848;2022-09-09T07:35:50;99669.00;;;18.70;98.84
23996;BME280;12207;50.076;8.848;2022-09-09T07:38:17;99672.47;;;18.69;98.48
23996;BME280;12207;50.076;8.848;2022-09-09T07:40:44;99668.97;;;18.67;99.56
23996;BME280;12207;50.076;8.848;2022-09-09T07:43:11;99659.47;;;18.63;98.99
23996;BME280;12207;50.076;8.848;2022-09-09T07:45:38;99663.75;;;18.61;99.68
23996;BME280;12207;50.076;8.848;2022-09-09T07:48:04;99666.41;;;18.65;100.00
23996;BME280;12207;50.076;8.848;2022-09-09T07:50:31;99667.25;;;18.66;100.00
23996;BME280;12207;50.076;8.848;2022-09-09T07:52:58;99679.38;;;18.72;99.07
23996;BME280;12207;50.076;8.848;2022-09-09T07:55:25;99669.88;;;18.71;99.88
23996;BME280;12207;50.076;8.848;2022-09-09T07:57:53;99681.03;;;18.66;99.33
23996;BME280;12207;50.076;8.848;2022-09-09T08:00:19;99676.00;;;18.74;99.83
23996;BME280;12207;50.076;8.848;2022-09-09T08:02:48;99685.44;;;18.74;99.47
23996;BME280;12207;50.076;8.848;2022-09-09T08:05:14;99689.84;;;18.82;99.28
23996;BME280;12207;50.076;8.848;2022-09-09T08:07:41;99693.41;;;18.92;99.12
23996;BME280;12207;50.076;8.848;2022-09-09T08:10:08;99695.25;;;19.07;100.00
23996;BME280;12207;50.076;8.848;2022-09-09T08:12:34;99695.19;;;18.99;99.42
23996;BME280;12207;50.076;8.848;2022-09-09T08:15:01;99707.22;;;18.96;98.89
23996;BME280;12207;50.076;8.848;2022-09-09T08:17:27;99697.94;;;19.19;97.55
23996;BME280;12207;50.076;8.848;2022-09-09T08:19:54;99710.16;;;19.39;96.75
23996;BME280;12207;50.076;8.848;2022-09-09T08:22:20;99708.44;;;19.38;96.67
23996;BME280;12207;50.076;8.848;2022-09-09T08:24:48;99704.09;;;19.30;97.82
23996;BME280;12207;50.076;8.848;2022-09-09T08:27:14;99709.31;;;19.41;97.72
23996;BME280;12207;50.076;8.848;2022-09-09T08:29:41;99705.13;;;19.57;96.28
23996;BME280;12207;50.076;8.848;2022-09-09T08:32:07;99710.47;;;19.75;95.78
23996;BME280;12207;50.076;8.848;2022-09-09T08:34:34;99704.38;;;19.70;94.69
23996;BME280;12207;50.076;8.848;2022-09-09T08:37:01;99721.69;;;19.80;94.14
23996;BME280;12207;50.076;8.848;2022-09-09T08:39:28;99719.09;;;19.76;94.27
23996;BME280;12207;50.076;8.848;2022-09-09T08:52:23;99720.28;;;20.38;90.30
23996;BME280;12207;50.076;8.848;2022-09-09T08:54:51;99731.59;;;20.54;90.02
23996;BME280;12207;50.076;8.848;2022-09-09T08:57:20;99722.88;;;20.45;90.01
23996;BME280;12207;50.076;8.848;2022-09-09T08:59:49;99722.88;;;20.39;89.96
23996;BME280;12207;50.076;8.848;2022-09-09T09:02:25;99728.78;;;20.11;89.11
23996;BME280;12207;50.076;8.848;2022-09-09T09:07:32;99713.56;;;21.12;88.06
23996;BME280;12207;50.076;8.848;2022-09-09T09:12:40;99718.78;;;21.63;84.52
23996;BME280;12207;50.076;8.848;2022-09-09T09:15:11;99711.88;;;21.37;83.36
23996;BME280;12207;50.076;8.848;2022-09-09T09:17:40;99697.13;;;21.04;84.83
23996;BME280;12207;50.076;8.848;2022-09-09T09:20:12;99706.63;;;21.74;83.72
23996;BME280;12207;50.076;8.848;2022-09-09T09:22:44;99705.38;;;22.74;76.20
23996;BME280;12207;50.076;8.848;2022-09-09T09:25:18;99703.09;;;22.02;76.26
23996;BME280;12207;50.076;8.848;2022-09-09T09:27:57;99700.47;;;22.08;79.92
23996;BME280;12207;50.076;8.848;2022-09-09T09:30:29;99712.25;;;22.88;75.45
23996;BME280;12207;50.076;8.848;2022-09-09T09:35:27;99707.91;;;22.85;73.35
23996;BME280;12207;50.076;8.848;2022-09-09T09:37:53;99714.25;;;22.43;76.89
23996;BME280;12207;50.076;8.848;2022-09-09T09:40:21;99705.72;;;21.89;80.26
23996;BME280;12207;50.076;8.848;2022-09-09T09:42:49;99701.44;;;21.71;81.46
23996;BME280;12207;50.076;8.848;2022-09-09T09:48:13;99704.88;;;20.87;83.98
23996;BME280;12207;50.076;8.848;2022-09-09T09:50:52;99695.38;;;20.89;85.89
23996;BME280;12207;50.076;8.848;2022-09-09T09:53:21;99696.22;;;20.79;86.10
23996;BME280;12207;50.076;8.848;2022-09-09T09:55:59;99703.09;;;20.63;88.52
23996;BME280;12207;50.076;8.848;2022-09-09T09:58:27;99692.72;;;20.63;87.63
23996;BME280;12207;50.076;8.848;2022-09-09T10:00:57;99703.94;;;20.53;86.72
23996;BME280;12207;50.076;8.848;2022-09-09T10:03:29;99700.56;;;20.95;82.88
23996;BME280;12207;50.076;8.848;2022-09-09T10:05:55;99691.91;;;21.62;83.31
23996;BME280;12207;50.076;8.848;2022-09-09T10:08:23;99688.91;;;22.72;78.50
23996;BME280;12207;50.076;8.848;2022-09-09T10:13:25;99690.56;;;23.89;72.52
23996;BME280;12207;50.076;8.848;2022-09-09T10:21:16;99679.22;;;22.99;76.57
23996;BME280;12207;50.076;8.848;2022-09-09T10:26:35;99679.81;;;21.72;82.68
23996;BME280;12207;50.076;8.848;2022-09-09T10:29:08;99683.25;;;21.35;84.00
23996;BME280;12207;50.076;8.848;2022-09-09T10:31:51;99681.53;;;20.93;87.58
23996;BME280;12207;50.076;8.848;2022-09-09T10:37:15;99674.47;;;20.40;92.68
23996;BME280;12207;50.076;8.848;2022-09-09T10:39:48;99678.72;;;20.12;94.43
23996;BME280;12207;50.076;8.848;2022-09-09T10:42:19;99671.78;;;20.11;93.13
23996;BME280;12207;50.076;8.848;2022-09-09T10:45:03;99661.44;;;20.12;94.82
23996;BME280;12207;50.076;8.848;2022-09-09T10:50:06;99664.09;;;20.23;97.52
23996;BME280;12207;50.076;8.848;2022-09-09T10:55:12;99663.34;;;20.53;95.73
23996;BME280;12207;50.076;8.848;2022-09-09T10:57:46;99652.13;;;21.14;92.47
23996;BME280;12207;50.076;8.848;2022-09-09T11:00:19;99639.97;;;21.68;90.30
23996;BME280;12207;50.076;8.848;2022-09-09T11:03:02;99649.50;;;21.65;89.44
23996;BME280;12207;50.076;8.848;2022-09-09T11:05:30;99651.28;;;21.52;86.34
23996;BME280;12207;50.076;8.848;2022-09-09T11:08:03;99642.56;;;21.70;86.65
23996;BME280;12207;50.076;8.848;2022-09-09T11:13:02;99646.81;;;23.35;76.14
23996;BME280;12207;50.076;8.848;2022-09-09T11:15:35;99643.97;;;23.60;72.14
23996;BME280;12207;50.076;8.848;2022-09-09T11:18:04;99639.84;;;23.37;69.65
23996;BME280;12207;50.076;8.848;2022-09-09T11:20:32;99643.47;;;24.04;68.44
23996;BME280;12207;50.076;8.848;2022-09-09T11:23:14;99639.53;;;24.39;65.30
23996;BME280;12207;50.076;8.848;2022-09-09T11:25:43;99647.78;;;24.05;65.29
23996;BME280;12207;50.076;8.848;2022-09-09T11:36:44;99644.44;;;23.94;65.46
23996;BME280;12207;50.076;8.848;2022-09-09T11:41:33;99652.56;;;23.68;68.54
23996;BME280;12207;50.076;8.848;2022-09-09T11:44:08;99649.53;;;23.20;68.65
23996;BME280;12207;50.076;8.848;2022-09-09T11:46:36;99648.03;;;22.87;70.73
23996;BME280;12207;50.076;8.848;2022-09-09T11:49:05;99652.22;;;23.11;70.90
23996;BME280;12207;50.076;8.848;2022-09-09T11:51:32;99655.72;;;23.96;66.14
23996;BME280;12207;50.076;8.848;2022-09-09T11:54:00;99646.22;;;24.60;65.55
23996;BME280;12207;50.076;8.848;2022-09-09T11:56:32;99647.03;;;24.62;65.81
23996;BME280;12207;50.076;8.848;2022-09-09T12:01:29;99648.00;;;24.56;66.51
23996;BME280;12207;50.076;8.848;2022-09-09T12:06:45;99651.09;;;24.21;65.36
23996;BME280;12207;50.076;8.848;2022-09-09T12:09:19;99652.03;;;23.35;70.18
23996;BME280;12207;50.076;8.848;2022-09-09T12:11:49;99650.03;;;22.48;72.73
23996;BME280;12207;50.076;8.848;2022-09-09T12:14:23;99653.53;;;22.47;74.48
23996;BME280;12207;50.076;8.848;2022-09-09T12:20:04;99658.03;;;22.06;75.26
23996;BME280;12207;50.076;8.848;2022-09-09T12:25:23;99662.47;;;21.68;77.79
23996;BME280;12207;50.076;8.848;2022-09-09T12:30:57;99669.41;;;20.63;91.83
23996;BME280;12207;50.076;8.848;2022-09-09T12:33:32;99663.22;;;20.33;97.12
23996;BME280;12207;50.076;8.848;2022-09-09T12:35:59;99653.66;;;20.11;96.08
23996;BME280;12207;50.076;8.848;2022-09-09T12:38:32;99655.41;;;20.15;95.75
23996;BME280;12207;50.076;8.848;2022-09-09T12:40:58;99648.50;;;20.14;96.92
23996;BME280;12207;50.076;8.848;2022-09-09T12:43:27;99646.78;;;20.22;98.22
23996;BME280;12207;50.076;8.848;2022-09-09T12:45:56;99655.47;;;20.32;99.37
23996;BME280;12207;50.076;8.848;2022-09-09T12:48:26;99650.28;;;20.39;93.90
23996;BME280;12207;50.076;8.848;2022-09-09T12:50:54;99652.91;;;20.41;100.00
23996;BME280;12207;50.076;8.848;2022-09-09T12:55:56;99636.44;;;20.28;100.00
23996;BME280;12207;50.076;8.848;2022-09-09T12:58:23;99630.38;;;20.21;100.00
23996;BME280;12207;50.076;8.848;2022-09-09T13:00:51;99626.91;;;20.12;100.00
23996;BME280;12207;50.076;8.848;2022-09-09T13:03:19;99632.00;;;19.90;100.00
23996;BME280;12207;50.076;8.848;2022-09-09T13:05:47;99630.03;;;19.52;100.00
23996;BME280;12207;50.076;8.848;2022-09-09T13:08:14;99623.81;;;19.24;100.00
23996;BME280;12207;50.076;8.848;2022-09-09T13:13:19;99644.31;;;18.95;100.00
23996;BME280;12207;50.076;8.848;2022-09-09T13:15:48;99663.84;;;18.70;100.00
23996;BME280;12207;50.076;8.848;2022-09-09T13:18:16;99654.34;;;18.67;100.00
23996;BME280;12207;50.076;8.848;2022-09-09T13:20:46;99650.03;;;18.65;100.00
23996;BME280;12207;50.076;8.848;2022-09-09T13:23:13;99642.31;;;18.73;100.00
23996;BME280;12207;50.076;8.848;2022-09-09T13:25:41;99646.06;;;19.02;100.00
23996;BME280;12207;50.076;8.848;2022-09-09T13:28:23;99653.94;;;19.16;100.00
23996;BME280;12207;50.076;8.848;2022-09-09T13:33:44;99669.59;;;19.34;100.00
23996;BME280;12207;50.076;8.848;2022-09-09T13:36:11;99668.69;;;19.29;100.00
23996;BME280;12207;50.076;8.848;2022-09-09T13:38:54;99650.66;;;19.42;100.00
23996;BME280;12207;50.076;8.848;2022-09-09T13:41:22;99648.91;;;19.36;100.00
23996;BME280;12207;50.076;8.848;2022-09-09T13:43:50;99649.06;;;19.57;100.00
23996;BME280;12207;50.076;8.848;2022-09-09T13:49:00;99638.75;;;19.64;100.00
23996;BME280;12207;50.076;8.848;2022-09-09T13:54:00;99644.75;;;19.63;100.00
23996;BME280;12207;50.076;8.848;2022-09-09T13:56:27;99643.97;;;19.71;100.00
23996;BME280;12207;50.076;8.848;2022-09-09T13:58:54;99648.19;;;19.58;100.00
23996;BME280;12207;50.076;8.848;2022-09-09T14:01:20;99644.84;;;19.73;100.00
23996;BME280;12207;50.076;8.848;2022-09-09T14:03:47;99648.44;;;20.08;100.00
23996;BME280;12207;50.076;8.848;2022-09-09T14:06:13;99654.72;;;20.65;100.00
23996;BME280;12207;50.076;8.848;2022-09-09T14:08:40;99655.59;;;21.25;95.17
23996;BME280;12207;50.076;8.848;2022-09-09T14:11:08;99659.03;;;21.09;90.53
23996;BME280;12207;50.076;8.848;2022-09-09T14:13:37;99667.72;;;20.97;88.25
23996;BME280;12207;50.076;8.848;2022-09-09T14:16:04;99667.66;;;20.53;85.39
23996;BME280;12207;50.076;8.848;2022-09-09T14:18:30;99668.38;;;20.24;88.91
23996;BME280;12207;50.076;8.848;2022-09-09T14:20:57;99677.81;;;19.99;91.29
23996;BME280;12207;50.076;8.848;2022-09-09T14:23:25;99674.34;;;20.01;93.19
23996;BME280;12207;50.076;8.848;2022-09-09T14:25:51;99675.22;;;20.02;95.09
23996;BME280;12207;50.076;8.848;2022-09-09T14:28:18;99660.53;;;20.02;93.04
23996;BME280;12207;50.076;8.848;2022-09-09T14:30:44;99665.72;;;20.02;99.61
23996;BME280;12207;50.076;8.848;2022-09-09T14:33:12;99660.50;;;19.98;97.62
23996;BME280;12207;50.076;8.848;2022-09-09T14:35:39;99654.47;;;20.00;98.41
23996;BME280;12207;50.076;8.848;2022-09-09T14:38:07;99651.94;;;20.14;96.93
23996;BME280;12207;50.076;8.848;2022-09-09T14:40:34;99651.13;;;20.27;94.94
23996;BME280;12207;50.076;8.848;2022-09-09T14:43:01;99647.69;;;20.30;94.71
23996;BME280;12207;50.076;8.848;2022-09-09T14:45:28;99637.34;;;20.35;93.25
23996;BME280;12207;50.076;8.848;2022-09-09T14:47:54;99636.44;;;20.34;93.05
23996;BME280;12207;50.076;8.848;2022-09-09T14:50:22;99638.19;;;20.32;89.69
23996;BME280;12207;50.076;8.848;2022-09-09T14:52:49;99638.19;;;20.26;89.55
23996;BME280;12207;50.076;8.848;2022-09-09T14:55:16;99629.50;;;20.22;94.06
23996;BME280;12207;50.076;8.848;2022-09-09T14:57:43;99631.25;;;20.17;90.10
23996;BME280;12207;50.076;8.848;2022-09-09T15:00:09;99622.59;;;20.14;92.58
23996;BME280;12207;50.076;8.848;2022-09-09T15:02:36;99622.53;;;20.01;93.15
23996;BME280;12207;50.076;8.848;2022-09-09T15:05:03;99619.09;;;20.04;94.64